Latest Weather Observations for Warrnambool

IDV60801

Issued at 11:34 am EDT Tuesday 17 January 2017 (issued every 30 minutes, with the page automatically refreshed every 10 minutes)

About weather observations | Map of weather stations | Latest weather observations for VIC | Other Formats
Station Details ID: 090186 Name: WARRNAMBOOL AIRPORT NDB Lat: -38.29 Lon: 142.45 Height: 70.8 m
Data from the previous 72 hours. | See also: Recent months at Warrnambool
Date/Time
EDT
Temp
°C
App
Temp
°C
Dew
Point
°C
Rel
Hum
%
Delta-T
°C
Wind Press
QNH
hPa
Press
MSL
hPa
Rain since
9am
mm
Dir  Spd
km/h
Gust
km/h
Spd
kts
Gust
kts
17/11:30am 27.4 26.8 12.2 39 8.8 NNW 7 11 4 6 1008.1 1007.9 0.0
17/11:00am 26.2 24.8 10.8 38 8.7 W 9 13 5 7 1008.5 1008.4 0.0
17/10:30am 26.2 24.7 9.1 34 9.4 NNW 7 13 4 7 1008.2 1008.1 0.0
17/10:00am 25.1 23.1 11.6 42 7.7 NNW 13 17 7 9 1008.4 1008.3 0.0
17/09:30am 23.9 21.1 12.5 49 6.5 N 19 26 10 14 1008.3 1008.2 0.0
17/09:00am 22.4 19.4 12.6 54 5.6 N 20 24 11 13 1008.1 1007.9 0.0
17/08:30am 21.2 18.2 12.6 58 4.9 N 20 24 11 13 1008.1 1007.9 0.0
17/08:00am 19.2 16.9 12.9 67 3.6 N 17 20 9 11 1008.2 1008.1 0.0
17/07:30am 17.9 15.5 12.8 72 2.9 N 17 20 9 11 1008.1 1007.9 0.0
17/07:00am 16.4 13.9 12.4 77 2.2 N 17 19 9 10 1008.2 1008.1 0.0
17/06:30am 15.5 13.1 12.6 83 1.6 NNE 17 19 9 10 1007.8 1007.6 0.0
17/06:00am 14.7 12.9 12.2 85 1.4 N 13 13 7 7 1008.1 1007.9 0.0
17/05:30am 14.3 12.6 12.3 88 1.1 NNE 13 15 7 8 1007.8 1007.6 0.0
17/05:00am 14.4 12.7 12.3 87 1.1 NNE 13 15 7 8 1007.7 1007.5 0.0
17/04:30am 14.4 13.3 11.9 85 1.4 NNE 9 15 5 8 1007.5 1007.3 0.0
17/04:00am 15.2 14.2 12.3 83 1.6 N 9 11 5 6 1008.3 1008.2 0.0
17/03:30am 15.1 14.6 12.1 82 1.6 N 6 9 3 5 1008.2 1008.1 0.0
17/03:00am 15.8 16.2 12.4 80 1.9 N 2 7 1 4 1008.3 1008.2 0.0
17/02:30am 15.9 15.4 12.6 81 1.8 N 7 9 4 5 1008.6 1008.5 0.0
17/02:00am 16.3 15.8 12.8 80 1.9 N 7 9 4 5 1009.0 1008.9 0.0
17/01:30am 16.3 16.1 13.0 81 1.8 N 6 7 3 4 1009.2 1009.1 0.0
17/01:00am 16.6 17.6 13.3 81 1.9 CALM 0 6 0 3 1009.4 1009.3 0.0
17/12:30am 16.9 16.7 13.0 78 2.2 NW 6 7 3 4 1009.5 1009.4 0.0
17/12:00am 17.0 18.0 13.1 78 2.2 CALM 0 0 0 0 1009.7 1009.6 0.0
 
Date/Time
EDT
Temp
°C
App
Temp
°C
Dew
Point
°C
Rel
Hum
%
Delta-T
°C
Wind Press
QNH
hPa
Press
MSL
hPa
Rain since
9am
mm
Dir  Spd
km/h
Gust
km/h
Spd
kts
Gust
kts
16/11:30pm 17.6 18.4 12.7 73 2.7 CALM 0 0 0 0 1009.5 1009.4 0.0
16/11:00pm 17.6 18.5 12.9 74 2.6 CALM 0 0 0 0 1010.0 1009.9 0.0
16/10:30pm 18.2 17.9 13.3 73 2.8 SSE 7 9 4 5 1010.4 1010.3 0.0
16/10:00pm 18.2 18.1 13.3 73 2.8 SE 6 7 3 4 1010.3 1010.2 0.0
16/09:30pm 20.2 21.1 12.9 63 4.1 CALM 0 0 0 0 1010.0 1009.9 0.0
16/09:00pm 21.7 21.4 12.8 57 5.1 SE 6 7 3 4 1010.1 1010.0 0.0
16/08:30pm 23.0 21.5 13.2 54 5.7 SSW 13 13 7 7 1010.0 1009.9 0.0
16/08:00pm 24.0 23.7 13.2 50 6.3 SSE 7 9 4 5 1009.6 1009.5 0.0
16/07:30pm 25.0 23.7 12.6 46 7.2 SSW 11 13 6 7 1009.9 1009.8 0.0
16/07:00pm 27.1 24.4 10.3 35 9.4 SSW 15 17 8 9 1009.9 1009.8 0.0
16/06:30pm 28.1 26.0 11.2 35 9.7 SSW 13 17 7 9 1009.9 1009.8 0.0
16/06:00pm 28.5 26.3 10.7 33 10.1 SSW 13 20 7 11 1010.0 1009.9 0.0
16/05:30pm 28.7 26.0 10.4 32 10.4 SSW 15 22 8 12 1010.3 1010.2 0.0
16/05:00pm 27.9 24.9 10.6 34 9.8 S 17 22 9 12 1010.7 1010.6 0.0
16/04:30pm 27.9 25.1 13.1 40 8.7 SSW 20 28 11 15 1010.9 1010.8 0.0
16/04:00pm 27.3 24.8 14.0 44 8.0 S 20 30 11 16 1011.1 1011.0 0.0
16/03:30pm 26.0 23.2 13.2 45 7.5 S 20 26 11 14 1011.5 1011.4 0.0
16/03:00pm 26.2 22.1 12.6 43 7.9 SSW 26 32 14 17 1012.0 1011.9 0.0
16/02:30pm 28.8 26.0 12.7 37 9.5 SW 19 32 10 17 1011.7 1011.6 0.0
16/02:00pm 29.7 25.3 7.6 25 12.0 NW 20 35 11 19 1012.3 1012.2 0.0
16/01:30pm 29.4 25.3 8.5 27 11.5 WNW 20 33 11 18 1012.9 1012.7 0.0
16/01:00pm 28.6 24.7 9.3 30 10.7 NW 20 32 11 17 1013.2 1013.0 0.0
16/12:30pm 26.9 23.3 10.6 36 9.2 WNW 20 30 11 16 1013.6 1013.4 0.0
16/12:00pm 25.7 22.8 11.1 40 8.3 NW 17 30 9 16 1014.0 1013.8 0.0
16/11:30am 23.9 21.6 11.6 46 7.0 NW 15 26 8 14 1014.3 1014.1 0.0
16/11:00am 22.3 21.1 12.8 55 5.4 N 11 20 6 11 1014.7 1014.5 0.0
16/10:30am 20.3 18.6 13.5 65 3.9 NNE 15 22 8 12 1015.1 1014.9 0.0
16/10:00am 18.3 16.1 13.2 72 2.9 NE 17 22 9 12 1015.4 1015.2 0.0
16/09:30am 16.7 14.3 12.7 77 2.2 NE 17 22 9 12 1015.6 1015.4 0.0
16/09:00am 15.0 12.6 12.7 86 1.3 NE 17 24 9 13 1015.7 1015.5 0.0
16/08:30am 13.3 11.4 11.7 90 0.9 NE 13 19 7 10 1015.5 1015.3 0.0
16/08:00am 11.6 10.7 10.7 94 0.5 NE 6 7 3 4 1015.9 1015.7 0.0
16/07:30am 9.6 7.6 8.7 94 0.4 NNE 9 11 5 6 1015.6 1015.4 0.0
16/07:00am 7.4 4.1 6.5 94 0.4 NNE 13 13 7 7 1015.4 1015.2 0.0
16/06:30am 6.6 3.5 5.7 94 0.4 NNE 11 11 6 6 1015.5 1015.3 0.0
16/06:00am 6.7 4.0 5.8 94 0.4 N 9 11 5 6 1015.6 1015.4 0.0
16/05:30am 6.9 3.5 6.0 94 0.4 N 13 15 7 8 1015.6 1015.4 0.0
16/05:00am 6.8 3.8 5.9 94 0.4 NNE 11 13 6 7 1015.4 1015.2 0.0
16/04:30am 7.1 4.1 6.2 94 0.4 N 11 13 6 7 1015.2 1015.0 0.0
16/04:00am 7.2 4.3 6.3 94 0.4 NNE 11 13 6 7 1015.3 1015.1 0.0
16/03:30am 7.1 4.1 6.2 94 0.4 NNE 11 13 6 7 1015.4 1015.2 0.0
16/03:00am 7.0 4.4 6.1 94 0.4 NNE 9 11 5 6 1015.6 1015.4 0.0
16/02:30am 7.2 4.6 6.3 94 0.4 NNE 9 9 5 5 1015.9 1015.7 0.0
16/02:00am 7.0 4.8 6.1 94 0.4 NE 7 9 4 5 1016.3 1016.1 0.0
16/01:30am 8.1 7.5 7.2 94 0.4 CALM 0 4 0 2 1016.4 1016.2 0.0
16/01:00am 8.1 6.1 7.2 94 0.4 NNE 7 9 4 5 1016.7 1016.5 0.0
16/12:30am 8.0 6.0 7.1 94 0.4 NNE 7 9 4 5 1017.2 1017.0 0.0
16/12:00am 8.7 7.1 7.8 94 0.4 SSE 6 6 3 3 1017.3 1017.1 0.0
 
Date/Time
EDT
Temp
°C
App
Temp
°C
Dew
Point
°C
Rel
Hum
%
Delta-T
°C
Wind Press
QNH
hPa
Press
MSL
hPa
Rain since
9am
mm
Dir  Spd
km/h
Gust
km/h
Spd
kts
Gust
kts
15/11:30pm 9.5 9.2 8.6 94 0.4 CALM 0 0 0 0 1017.6 1017.4 0.0
15/11:00pm 10.0 9.8 8.9 93 0.5 CALM 0 0 0 0 1017.9 1017.7 0.0
15/10:30pm 10.7 10.2 9.3 91 0.7 S 2 6 1 3 1018.0 1017.8 0.0
15/10:00pm 11.4 9.9 9.1 86 1.1 S 7 9 4 5 1018.0 1017.8 0.0
15/09:30pm 12.2 10.8 9.4 83 1.4 S 7 9 4 5 1018.1 1017.9 0.0
15/09:00pm 13.4 11.6 9.6 78 1.9 SSW 9 11 5 6 1018.0 1017.8 0.0
15/08:30pm 15.2 12.9 10.4 73 2.5 SSW 13 17 7 9 1017.9 1017.7 0.0
15/08:00pm 16.2 13.4 10.1 67 3.2 SSW 15 20 8 11 1017.9 1017.7 0.0
15/07:30pm 16.9 13.9 10.5 66 3.4 SSW 17 22 9 12 1017.8 1017.6 0.0
15/07:00pm 17.3 13.6 10.0 62 3.9 SSW 20 28 11 15 1018.0 1017.8 0.0
15/06:30pm 17.6 13.8 9.8 60 4.1 SSW 20 26 11 14 1018.0 1017.8 0.0
15/06:00pm 18.2 14.7 11.0 63 3.9 SSW 20 30 11 16 1018.2 1018.0 0.0
15/05:30pm 17.8 14.2 10.7 63 3.8 SSW 20 30 11 16 1018.5 1018.3 0.0
15/05:00pm 19.0 15.5 10.8 59 4.4 SSW 20 28 11 15 1018.7 1018.5 0.0
15/04:30pm 18.2 13.5 10.8 62 4.0 SSW 26 35 14 19 1019.0 1018.8 0.0
15/04:00pm 18.9 14.6 10.7 59 4.4 SW 24 35 13 19 1019.1 1018.9 0.0
15/03:30pm 19.2 14.8 10.5 57 4.7 SSW 24 33 13 18 1019.2 1019.0 0.0
15/03:00pm 18.3 13.8 9.9 58 4.5 SSW 24 32 13 17 1019.3 1019.1 0.0
15/02:30pm 18.4 15.0 11.2 63 3.9 SSW 20 28 11 15 1019.4 1019.2 0.0
15/02:00pm 18.8 15.7 11.6 63 4.0 SSW 19 26 10 14 1019.4 1019.2 0.0
15/01:30pm 17.3 13.6 10.2 63 3.8 SW 20 28 11 15 1019.6 1019.4 0.0
15/01:00pm 17.1 13.9 9.8 62 3.8 SSW 17 26 9 14 1019.7 1019.5 0.0
15/12:30pm 17.4 14.3 10.3 63 3.8 SSW 17 24 9 13 1019.7 1019.5 0.0
15/12:00pm 17.1 14.2 9.8 62 3.8 SW 15 20 8 11 1019.7 1019.5 0.0
15/11:30am 17.1 13.9 10.0 63 3.8 SW 17 24 9 13 1019.7 1019.5 0.0
15/11:00am 17.2 14.7 9.6 61 4.0 WSW 13 20 7 11 1019.7 1019.5 0.0
15/10:30am 16.5 13.4 9.0 61 3.9 W 15 20 8 11 1019.8 1019.6 0.0
15/10:00am 16.0 12.9 9.0 63 3.6 WSW 15 20 8 11 1019.8 1019.6 0.0
15/09:30am 15.8 13.5 9.0 64 3.5 SW 11 15 6 8 1019.4 1019.2 0.0
15/09:00am 15.6 12.9 9.1 65 3.3 WSW 13 20 7 11 1019.4 1019.2 0.2
15/08:30am 14.9 13.3 10.3 74 2.4 W 9 13 5 7 1019.3 1019.1 0.2
15/08:00am 14.4 13.5 10.6 78 2.0 WNW 6 7 3 4 1019.0 1018.8 0.2
15/07:30am 13.9 12.9 10.3 79 1.9 WNW 6 7 3 4 1018.6 1018.4 0.2
15/07:00am 13.7 12.5 10.3 80 1.8 NW 7 9 4 5 1018.3 1018.1 0.2
15/06:30am 13.8 12.1 9.8 77 2.1 WNW 9 13 5 7 1018.2 1018.0 0.2
15/06:00am 13.8 12.6 9.5 75 2.2 WSW 6 7 3 4 1017.8 1017.6 0.2
15/05:30am 14.1 11.4 8.9 71 2.6 SW 13 17 7 9 1017.6 1017.4 0.2
15/05:00am 14.0 10.9 9.0 72 2.5 SW 15 20 8 11 1017.5 1017.3 0.2
15/04:30am 14.1 10.6 8.7 70 2.7 SW 17 20 9 11 1017.2 1017.0 0.2
15/04:00am 14.0 10.8 8.4 69 2.8 SW 15 20 8 11 1017.0 1016.8 0.2
15/03:30am 14.2 9.7 8.4 68 2.9 SSW 22 26 12 14 1017.2 1017.0 0.2
15/03:00am 14.4 10.6 9.2 71 2.7 SW 19 24 10 13 1017.1 1016.9 0.2
15/02:30am 14.2 11.6 9.2 72 2.6 SW 13 20 7 11 1017.2 1017.0 0.2
15/02:00am 14.0 10.9 8.8 71 2.6 WSW 15 19 8 10 1017.4 1017.2 0.2
15/01:30am 14.6 10.9 9.4 71 2.7 WSW 19 26 10 14 1017.3 1017.1 0.2
15/01:00am 14.6 11.5 10.2 75 2.3 WSW 17 22 9 12 1017.5 1017.3 0.2
15/12:30am 14.8 11.2 10.6 76 2.2 SW 20 30 11 16 1017.5 1017.3 0.2
15/12:00am 14.8 10.9 8.7 67 3.1 SW 19 24 10 13 1017.5 1017.3 0.2
 
Date/Time
EDT
Temp
°C
App
Temp
°C
Dew
Point
°C
Rel
Hum
%
Delta-T
°C
Wind Press
QNH
hPa
Press
MSL
hPa
Rain since
9am
mm
Dir  Spd
km/h
Gust
km/h
Spd
kts
Gust
kts
14/11:30pm 14.8 10.0 8.7 67 3.1 SW 24 30 13 16 1017.5 1017.3 0.2
14/11:00pm 14.5 10.6 9.3 71 2.7 SW 20 28 11 15 1017.4 1017.2 0.2
14/10:30pm 14.8 11.1 10.2 74 2.4 SW 20 28 11 15 1017.4 1017.2 0.2
14/10:00pm 14.1 10.1 8.9 71 2.6 WSW 20 30 11 16 1017.2 1017.0 0.2
14/09:30pm 14.7 9.7 9.7 72 2.6 WSW 26 37 14 20 1016.8 1016.6 0.2
14/09:00pm 15.1 10.8 10.7 75 2.3 SW 24 33 13 18 1016.5 1016.3 0.2
14/08:30pm 15.7 10.6 10.7 72 2.7 WSW 28 39 15 21 1016.4 1016.2 0.2
14/08:00pm 15.9 9.8 9.6 66 3.3 WSW 32 43 17 23 1015.9 1015.7 0.2
14/07:30pm 16.2 9.9 9.6 65 3.4 WSW 33 44 18 24 1015.6 1015.4 0.2
14/07:00pm 16.8 10.7 9.7 63 3.7 WSW 32 46 17 25 1015.2 1015.0 0.2
14/06:30pm 17.9 11.8 9.8 59 4.3 WSW 32 43 17 23 1014.9 1014.7 0.2
14/06:00pm 18.7 12.1 10.0 57 4.6 WSW 35 46 19 25 1014.7 1014.5 0.2
14/05:47pm 18.6 12.0 9.9 57 4.6 WSW 35 54 19 29 1014.6 1014.4 0.2
14/05:30pm 18.8 11.6 9.0 53 5.1 WSW 37 54 20 29 1014.6 1014.4 0.2
14/05:00pm 18.0 10.6 9.9 59 4.3 WSW 39 52 21 28 1014.5 1014.3 0.2
14/04:30pm 18.6 10.9 10.2 58 4.5 WSW 41 52 22 28 1014.2 1014.0 0.2
14/04:00pm 18.2 10.9 10.1 59 4.3 WSW 39 59 21 32 1013.8 1013.6 0.2
14/03:55pm 18.9 11.7 10.5 58 4.5 WSW 39 59 21 32 1013.8 1013.6 0.2
14/03:30pm 18.7 12.0 11.0 61 4.2 WSW 37 48 20 26 1013.4 1013.2 0.2
14/03:00pm 18.9 11.2 10.2 57 4.7 WSW 41 50 22 27 1013.0 1012.8 0.2
14/02:30pm 18.5 11.1 11.3 63 3.9 WSW 41 56 22 30 1012.5 1012.4 0.2
14/02:00pm 18.4 11.1 11.5 64 3.8 WSW 41 54 22 29 1012.3 1012.2 0.2
14/01:34pm 18.1 11.5 11.2 64 3.8 WSW 37 56 20 30 1012.2 1012.1 0.2
14/01:30pm 18.9 12.8 11.7 63 4.0 WSW 35 52 19 28 1012.1 1012.0 0.2
14/01:01pm 19.9 12.2 11.4 58 4.7 WSW 43 61 23 33 1011.7 1011.6 0.2
14/01:00pm 19.8 12.2 11.8 60 4.4 WSW 43 57 23 31 1011.7 1011.6 0.2
14/12:30pm 18.7 10.7 10.5 59 4.4 WSW 43 61 23 33 1011.2 1011.1 0.2
14/12:00pm 17.8 10.9 12.9 73 2.8 WSW 41 67 22 36 1010.9 1010.8 0.2
14/11:36am 15.8 8.8 12.4 80 1.9 WSW 41 59 22 32 1010.5 1010.4 0.2

Other Formats:

Comma delimited format used in spreadsheet applications
http://www.bom.gov.au/fwo/IDV60801/IDV60801.94837.axf

JavaScript Object Notation format (JSON) in row-major order
http://www.bom.gov.au/fwo/IDV60801/IDV60801.94837.json